K.pluto — 3EYQ3 — position and weather

sailwx.info

Track history (hours):
 
Tides and Currents Weather Stations Pressure Air Temp Water Temp Dewpoint Dewpoint Depression Visibility Wind Speed Wind Dir Waves Ship Positions

K.pluto

Last reported at 2015-May-09 17:13 UTC. Time now 2015-May-25 03:29 UTC.
Position S 35°09' W 057°02'.
Warning: this ship's position is 15 days out of date.

Length 170 m; draft 9.8 m.

Type: Cargo ship. MMSI: 373504000.

Date/timePositionNaut miles runAvg speedWind from/ knotsBaromVisibWave heightAir tempDewpointWater temp
2015-May-09 17:13S 35°09' W 057°02'1110.5
2015-May-09 16:13S 35°01' W 057°11'1111.5
2015-May-09 15:13S 34°53' W 057°20'912.3
2015-May-09 14:29S 34°48' W 057°29'1111.8
2015-May-09 13:33S 34°44' W 057°42'9 8.8
2015-May-09 12:33S 34°43' W 057°52'1010.2
2015-May-09 11:33S 34°39' W 058°04'10 9.9
2015-May-09 10:33S 34°36' W 058°15'9 8.7
2015-May-09 09:33S 34°29' W 058°23'1010.0
2015-May-09 08:33S 34°21' W 058°29'10 9.7
2015-May-09 07:28S 34°16' W 058°40'13 3.9
2015-May-09 04:16S 34°11' W 058°54'5 6.9
2015-May-09 03:33S 34°08' W 058°58'9 9.1
2015-May-09 02:31S 34°01' W 059°07'  
Track history (hours):
 
Tides and Currents Weather Stations Pressure Air Temp Water Temp Dewpoint Dewpoint Depression Visibility Wind Speed Wind Dir Waves Ship Positions

K.pluto

Last reported at 2015-May-09 17:13 UTC. Time now 2015-May-25 03:29 UTC.
Position S 35°09' W 057°02'.
Warning: this ship's position is 15 days out of date.

Length 170 m; draft 9.8 m.

Type: Cargo ship. MMSI: 373504000.

Date/timePositionNaut miles runAvg speedWind from/ knotsBaromVisibWave heightAir tempDewpointWater temp
2015-May-09 17:13S 35°09' W 057°02'1110.5
2015-May-09 16:13S 35°01' W 057°11'1111.5
2015-May-09 15:13S 34°53' W 057°20'912.3
2015-May-09 14:29S 34°48' W 057°29'1111.8
2015-May-09 13:33S 34°44' W 057°42'9 8.8
2015-May-09 12:33S 34°43' W 057°52'1010.2
2015-May-09 11:33S 34°39' W 058°04'10 9.9
2015-May-09 10:33S 34°36' W 058°15'9 8.7
2015-May-09 09:33S 34°29' W 058°23'1010.0
2015-May-09 08:33S 34°21' W 058°29'10 9.7
2015-May-09 07:28S 34°16' W 058°40'13 3.9
2015-May-09 04:16S 34°11' W 058°54'5 6.9
2015-May-09 03:33S 34°08' W 058°58'9 9.1
2015-May-09 02:31S 34°01' W 059°07'  

Dump ship's entire track history